sensor_id;sensor_type;location;lat;lon;timestamp;temperature;humidity
37658;DHT22;23500;53.268;8.308;2022-11-12T00:00:31;16.00;72.20
37658;DHT22;23500;53.268;8.308;2022-11-12T00:02:57;16.00;72.50
37658;DHT22;23500;53.268;8.308;2022-11-12T00:05:23;16.10;73.20
37658;DHT22;23500;53.268;8.308;2022-11-12T00:07:49;16.00;72.80
37658;DHT22;23500;53.268;8.308;2022-11-12T00:10:15;16.00;73.40
37658;DHT22;23500;53.268;8.308;2022-11-12T00:12:41;16.00;73.00
37658;DHT22;23500;53.268;8.308;2022-11-12T00:15:07;16.00;73.60
37658;DHT22;23500;53.268;8.308;2022-11-12T00:17:33;16.00;73.60
37658;DHT22;23500;53.268;8.308;2022-11-12T00:19:59;15.90;73.80
37658;DHT22;23500;53.268;8.308;2022-11-12T00:22:25;15.90;73.70
37658;DHT22;23500;53.268;8.308;2022-11-12T00:24:50;15.90;73.90
37658;DHT22;23500;53.268;8.308;2022-11-12T00:27:16;15.90;74.10
37658;DHT22;23500;53.268;8.308;2022-11-12T00:29:42;15.90;74.20
37658;DHT22;23500;53.268;8.308;2022-11-12T00:32:08;15.90;74.30
37658;DHT22;23500;53.268;8.308;2022-11-12T00:34:37;15.90;75.30
37658;DHT22;23500;53.268;8.308;2022-11-12T00:37:03;15.90;75.70
37658;DHT22;23500;53.268;8.308;2022-11-12T00:39:29;15.90;75.80
37658;DHT22;23500;53.268;8.308;2022-11-12T00:41:55;15.90;74.80
37658;DHT22;23500;53.268;8.308;2022-11-12T00:44:21;15.90;75.10
37658;DHT22;23500;53.268;8.308;2022-11-12T00:46:47;15.90;75.50
37658;DHT22;23500;53.268;8.308;2022-11-12T00:49:13;15.90;75.30
37658;DHT22;23500;53.268;8.308;2022-11-12T00:51:40;15.80;75.10
37658;DHT22;23500;53.268;8.308;2022-11-12T00:54:06;15.90;75.90
37658;DHT22;23500;53.268;8.308;2022-11-12T00:56:32;15.80;75.20
37658;DHT22;23500;53.268;8.308;2022-11-12T00:58:58;15.80;75.30
37658;DHT22;23500;53.268;8.308;2022-11-12T01:01:24;15.80;75.30
37658;DHT22;23500;53.268;8.308;2022-11-12T01:03:51;15.80;75.70
37658;DHT22;23500;53.268;8.308;2022-11-12T01:06:19;15.80;74.90
37658;DHT22;23500;53.268;8.308;2022-11-12T01:08:45;15.80;74.70
37658;DHT22;23500;53.268;8.308;2022-11-12T01:11:27;15.80;75.10
37658;DHT22;23500;53.268;8.308;2022-11-12T01:13:56;15.80;75.30
37658;DHT22;23500;53.268;8.308;2022-11-12T01:16:24;15.80;74.70
37658;DHT22;23500;53.268;8.308;2022-11-12T01:18:55;15.80;74.30
37658;DHT22;23500;53.268;8.308;2022-11-12T01:21:22;15.80;75.10
37658;DHT22;23500;53.268;8.308;2022-11-12T01:23:48;15.70;74.40
37658;DHT22;23500;53.268;8.308;2022-11-12T01:26:16;15.70;73.70
37658;DHT22;23500;53.268;8.308;2022-11-12T01:28:42;15.70;74.30
37658;DHT22;23500;53.268;8.308;2022-11-12T01:31:21;15.70;74.40
37658;DHT22;23500;53.268;8.308;2022-11-12T01:33:49;15.70;74.10
37658;DHT22;23500;53.268;8.308;2022-11-12T01:36:17;15.70;74.60
37658;DHT22;23500;53.268;8.308;2022-11-12T01:38:44;15.60;73.50
37658;DHT22;23500;53.268;8.308;2022-11-12T01:41:14;15.60;73.10
37658;DHT22;23500;53.268;8.308;2022-11-12T01:43:40;15.60;74.70
37658;DHT22;23500;53.268;8.308;2022-11-12T01:46:25;15.60;74.80
37658;DHT22;23500;53.268;8.308;2022-11-12T01:48:58;15.60;74.60
37658;DHT22;23500;53.268;8.308;2022-11-12T01:51:29;15.60;75.10
37658;DHT22;23500;53.268;8.308;2022-11-12T01:53:58;15.60;75.20
37658;DHT22;23500;53.268;8.308;2022-11-12T01:56:26;15.60;74.50
37658;DHT22;23500;53.268;8.308;2022-11-12T01:58:59;15.60;74.10
37658;DHT22;23500;53.268;8.308;2022-11-12T02:01:26;15.50;74.50
37658;DHT22;23500;53.268;8.308;2022-11-12T02:03:51;15.60;73.70
37658;DHT22;23500;53.268;8.308;2022-11-12T02:06:18;15.50;74.20
37658;DHT22;23500;53.268;8.308;2022-11-12T02:08:45;15.50;74.20
37658;DHT22;23500;53.268;8.308;2022-11-12T02:11:16;15.50;74.80
37658;DHT22;23500;53.268;8.308;2022-11-12T02:13:43;15.50;75.70
37658;DHT22;23500;53.268;8.308;2022-11-12T02:16:24;15.50;74.80
37658;DHT22;23500;53.268;8.308;2022-11-12T02:18:51;15.50;74.80
37658;DHT22;23500;53.268;8.308;2022-11-12T02:21:21;15.50;74.40
37658;DHT22;23500;53.268;8.308;2022-11-12T02:24:00;15.50;74.70
37658;DHT22;23500;53.268;8.308;2022-11-12T02:26:29;15.40;74.40
37658;DHT22;23500;53.268;8.308;2022-11-12T02:28:56;15.40;75.40
37658;DHT22;23500;53.268;8.308;2022-11-12T02:31:21;15.40;75.20
37658;DHT22;23500;53.268;8.308;2022-11-12T02:33:47;15.40;75.20
37658;DHT22;23500;53.268;8.308;2022-11-12T02:36:13;15.40;75.30
37658;DHT22;23500;53.268;8.308;2022-11-12T02:38:38;15.40;74.70
37658;DHT22;23500;53.268;8.308;2022-11-12T02:41:04;15.40;73.90
37658;DHT22;23500;53.268;8.308;2022-11-12T02:43:30;15.40;74.60
37658;DHT22;23500;53.268;8.308;2022-11-12T02:45:55;15.40;75.10
37658;DHT22;23500;53.268;8.308;2022-11-12T02:48:21;15.40;74.30
37658;DHT22;23500;53.268;8.308;2022-11-12T02:50:47;15.40;73.70
37658;DHT22;23500;53.268;8.308;2022-11-12T02:53:12;15.40;73.50
37658;DHT22;23500;53.268;8.308;2022-11-12T02:55:38;15.30;73.60
37658;DHT22;23500;53.268;8.308;2022-11-12T02:58:04;15.30;73.20
37658;DHT22;23500;53.268;8.308;2022-11-12T03:00:29;15.30;73.70
37658;DHT22;23500;53.268;8.308;2022-11-12T03:02:55;15.30;74.30
37658;DHT22;23500;53.268;8.308;2022-11-12T03:05:28;15.30;73.70
37658;DHT22;23500;53.268;8.308;2022-11-12T03:08:05;15.30;73.90
37658;DHT22;23500;53.268;8.308;2022-11-12T03:10:32;15.30;74.00
37658;DHT22;23500;53.268;8.308;2022-11-12T03:12:59;15.30;73.40
37658;DHT22;23500;53.268;8.308;2022-11-12T03:15:25;15.30;74.50
37658;DHT22;23500;53.268;8.308;2022-11-12T03:17:51;15.20;74.00
37658;DHT22;23500;53.268;8.308;2022-11-12T03:20:18;15.20;74.30
37658;DHT22;23500;53.268;8.308;2022-11-12T03:23:01;15.20;74.40
37658;DHT22;23500;53.268;8.308;2022-11-12T03:25:28;15.20;74.50
37658;DHT22;23500;53.268;8.308;2022-11-12T03:28:02;15.20;73.80
37658;DHT22;23500;53.268;8.308;2022-11-12T03:30:29;15.20;74.50
37658;DHT22;23500;53.268;8.308;2022-11-12T03:32:56;15.20;73.70
37658;DHT22;23500;53.268;8.308;2022-11-12T03:35:22;15.20;74.00
37658;DHT22;23500;53.268;8.308;2022-11-12T03:37:48;15.20;74.10
37658;DHT22;23500;53.268;8.308;2022-11-12T03:40:16;15.20;74.50
37658;DHT22;23500;53.268;8.308;2022-11-12T03:42:49;15.20;73.20
37658;DHT22;23500;53.268;8.308;2022-11-12T03:45:16;15.10;73.90
37658;DHT22;23500;53.268;8.308;2022-11-12T03:47:46;15.10;73.50
37658;DHT22;23500;53.268;8.308;2022-11-12T03:50:13;15.10;74.00
37658;DHT22;23500;53.268;8.308;2022-11-12T03:52:51;15.10;73.60
37658;DHT22;23500;53.268;8.308;2022-11-12T03:55:18;15.10;73.90
37658;DHT22;23500;53.268;8.308;2022-11-12T03:57:45;15.10;74.20
37658;DHT22;23500;53.268;8.308;2022-11-12T04:00:12;15.10;73.60
37658;DHT22;23500;53.268;8.308;2022-11-12T04:02:38;15.10;73.70
37658;DHT22;23500;53.268;8.308;2022-11-12T04:05:05;15.00;74.30
37658;DHT22;23500;53.268;8.308;2022-11-12T04:07:56;15.00;74.60
37658;DHT22;23500;53.268;8.308;2022-11-12T04:10:40;15.00;74.60
37658;DHT22;23500;53.268;8.308;2022-11-12T04:13:06;15.00;74.00
37658;DHT22;23500;53.268;8.308;2022-11-12T04:15:50;15.00;74.90
37658;DHT22;23500;53.268;8.308;2022-11-12T04:18:36;15.00;75.30
37658;DHT22;23500;53.268;8.308;2022-11-12T04:21:20;15.00;73.10
37658;DHT22;23500;53.268;8.308;2022-11-12T04:24:05;15.00;74.40
37658;DHT22;23500;53.268;8.308;2022-11-12T04:26:31;14.90;74.60
37658;DHT22;23500;53.268;8.308;2022-11-12T04:28:56;14.90;76.20
37658;DHT22;23500;53.268;8.308;2022-11-12T04:31:40;14.90;76.00
37658;DHT22;23500;53.268;8.308;2022-11-12T04:34:06;14.90;75.10
37658;DHT22;23500;53.268;8.308;2022-11-12T04:36:50;14.90;74.90
37658;DHT22;23500;53.268;8.308;2022-11-12T04:39:15;14.90;75.60
37658;DHT22;23500;53.268;8.308;2022-11-12T04:41:41;14.90;76.50
37658;DHT22;23500;53.268;8.308;2022-11-12T04:44:25;14.90;75.90
37658;DHT22;23500;53.268;8.308;2022-11-12T04:47:10;14.90;74.80
37658;DHT22;23500;53.268;8.308;2022-11-12T04:49:35;14.90;75.40
37658;DHT22;23500;53.268;8.308;2022-11-12T04:52:01;14.90;76.20
37658;DHT22;23500;53.268;8.308;2022-11-12T04:54:29;14.90;75.70
37658;DHT22;23500;53.268;8.308;2022-11-12T04:56:55;14.90;75.30
37658;DHT22;23500;53.268;8.308;2022-11-12T04:59:20;14.90;75.10
37658;DHT22;23500;53.268;8.308;2022-11-12T05:01:46;14.90;75.30
37658;DHT22;23500;53.268;8.308;2022-11-12T05:04:12;14.90;76.00
37658;DHT22;23500;53.268;8.308;2022-11-12T05:06:37;14.80;75.70
37658;DHT22;23500;53.268;8.308;2022-11-12T05:09:21;14.80;74.70
37658;DHT22;23500;53.268;8.308;2022-11-12T05:11:47;14.80;74.10
37658;DHT22;23500;53.268;8.308;2022-11-12T05:14:13;14.80;75.10
37658;DHT22;23500;53.268;8.308;2022-11-12T05:16:38;14.80;75.40
37658;DHT22;23500;53.268;8.308;2022-11-12T05:19:04;14.80;76.50
37658;DHT22;23500;53.268;8.308;2022-11-12T05:21:30;14.80;75.10
37658;DHT22;23500;53.268;8.308;2022-11-12T05:24:14;14.80;75.30
37658;DHT22;23500;53.268;8.308;2022-11-12T05:26:40;14.80;75.50
37658;DHT22;23500;53.268;8.308;2022-11-12T05:29:06;14.80;75.50
37658;DHT22;23500;53.268;8.308;2022-11-12T05:31:32;14.80;76.30
37658;DHT22;23500;53.268;8.308;2022-11-12T05:33:58;14.80;75.60
37658;DHT22;23500;53.268;8.308;2022-11-12T05:36:24;14.80;75.00
37658;DHT22;23500;53.268;8.308;2022-11-12T05:38:50;14.80;74.50
37658;DHT22;23500;53.268;8.308;2022-11-12T05:41:16;14.80;74.60
37658;DHT22;23500;53.268;8.308;2022-11-12T05:43:41;14.70;74.80
37658;DHT22;23500;53.268;8.308;2022-11-12T05:46:07;14.70;75.40
37658;DHT22;23500;53.268;8.308;2022-11-12T05:48:33;14.70;75.90
37658;DHT22;23500;53.268;8.308;2022-11-12T05:50:58;14.70;74.20
37658;DHT22;23500;53.268;8.308;2022-11-12T05:53:24;14.70;74.40
37658;DHT22;23500;53.268;8.308;2022-11-12T05:55:50;14.70;75.30
37658;DHT22;23500;53.268;8.308;2022-11-12T05:58:15;14.70;74.70
37658;DHT22;23500;53.268;8.308;2022-11-12T06:00:41;14.70;74.80
37658;DHT22;23500;53.268;8.308;2022-11-12T06:03:08;14.70;75.50
37658;DHT22;23500;53.268;8.308;2022-11-12T06:05:34;14.70;74.40
37658;DHT22;23500;53.268;8.308;2022-11-12T06:08:01;14.70;75.50
37658;DHT22;23500;53.268;8.308;2022-11-12T06:10:28;14.60;75.00
37658;DHT22;23500;53.268;8.308;2022-11-12T06:12:54;14.60;74.70
37658;DHT22;23500;53.268;8.308;2022-11-12T06:15:20;14.60;74.70
37658;DHT22;23500;53.268;8.308;2022-11-12T06:17:45;14.60;75.50
37658;DHT22;23500;53.268;8.308;2022-11-12T06:20:11;14.60;75.00
37658;DHT22;23500;53.268;8.308;2022-11-12T06:22:37;14.60;74.10
37658;DHT22;23500;53.268;8.308;2022-11-12T06:25:04;14.60;73.80
37658;DHT22;23500;53.268;8.308;2022-11-12T06:27:30;14.60;75.40
37658;DHT22;23500;53.268;8.308;2022-11-12T06:29:56;14.60;75.00
37658;DHT22;23500;53.268;8.308;2022-11-12T06:32:23;14.60;75.40
37658;DHT22;23500;53.268;8.308;2022-11-12T06:34:48;14.50;74.20
37658;DHT22;23500;53.268;8.308;2022-11-12T06:37:15;14.50;75.20
37658;DHT22;23500;53.268;8.308;2022-11-12T06:39:40;14.50;74.90
37658;DHT22;23500;53.268;8.308;2022-11-12T06:42:06;14.50;75.50
37658;DHT22;23500;53.268;8.308;2022-11-12T06:44:32;14.60;74.50
37658;DHT22;23500;53.268;8.308;2022-11-12T06:46:57;14.50;74.40
37658;DHT22;23500;53.268;8.308;2022-11-12T06:49:23;14.50;75.00
37658;DHT22;23500;53.268;8.308;2022-11-12T06:51:51;14.50;75.70
37658;DHT22;23500;53.268;8.308;2022-11-12T06:54:17;14.50;75.70
37658;DHT22;23500;53.268;8.308;2022-11-12T06:56:43;14.50;74.80
37658;DHT22;23500;53.268;8.308;2022-11-12T06:59:08;14.50;74.80
37658;DHT22;23500;53.268;8.308;2022-11-12T07:01:34;14.50;75.20
37658;DHT22;23500;53.268;8.308;2022-11-12T07:03:59;14.50;75.20
37658;DHT22;23500;53.268;8.308;2022-11-12T07:06:25;14.50;75.30
37658;DHT22;23500;53.268;8.308;2022-11-12T07:08:51;14.40;74.60
37658;DHT22;23500;53.268;8.308;2022-11-12T07:11:18;14.50;74.00
37658;DHT22;23500;53.268;8.308;2022-11-12T07:13:44;14.40;74.90
37658;DHT22;23500;53.268;8.308;2022-11-12T07:16:11;14.40;75.00
37658;DHT22;23500;53.268;8.308;2022-11-12T07:18:38;14.40;73.00
37658;DHT22;23500;53.268;8.308;2022-11-12T07:21:05;14.40;72.50
37658;DHT22;23500;53.268;8.308;2022-11-12T07:23:33;14.50;73.20
37658;DHT22;23500;53.268;8.308;2022-11-12T07:26:05;14.60;74.60
37658;DHT22;23500;53.268;8.308;2022-11-12T07:28:31;14.70;77.30
37658;DHT22;23500;53.268;8.308;2022-11-12T07:31:05;14.90;77.90
37658;DHT22;23500;53.268;8.308;2022-11-12T07:33:32;15.00;77.50
37658;DHT22;23500;53.268;8.308;2022-11-12T07:36:09;15.20;74.70
37658;DHT22;23500;53.268;8.308;2022-11-12T07:38:37;15.40;72.90
37658;DHT22;23500;53.268;8.308;2022-11-12T07:41:09;15.50;73.30
37658;DHT22;23500;53.268;8.308;2022-11-12T07:43:36;15.60;73.30
37658;DHT22;23500;53.268;8.308;2022-11-12T07:46:05;15.70;72.40
37658;DHT22;23500;53.268;8.308;2022-11-12T07:48:31;15.80;71.50
37658;DHT22;23500;53.268;8.308;2022-11-12T07:53:41;15.90;72.10
37658;DHT22;23500;53.268;8.308;2022-11-12T07:56:12;16.00;72.00
37658;DHT22;23500;53.268;8.308;2022-11-12T07:58:38;16.00;72.50
37658;DHT22;23500;53.268;8.308;2022-11-12T08:03:48;16.10;70.90
37658;DHT22;23500;53.268;8.308;2022-11-12T08:06:14;16.10;70.70
37658;DHT22;23500;53.268;8.308;2022-11-12T08:08:39;16.10;70.50
37658;DHT22;23500;53.268;8.308;2022-11-12T08:11:05;16.10;70.40
37658;DHT22;23500;53.268;8.308;2022-11-12T08:13:31;16.10;71.50
37658;DHT22;23500;53.268;8.308;2022-11-12T08:15:57;16.10;71.50
37658;DHT22;23500;53.268;8.308;2022-11-12T08:18:23;16.10;69.20
37658;DHT22;23500;53.268;8.308;2022-11-12T08:20:49;16.10;68.80
37658;DHT22;23500;53.268;8.308;2022-11-12T08:23:15;16.10;69.30
37658;DHT22;23500;53.268;8.308;2022-11-12T08:25:40;16.10;69.70
37658;DHT22;23500;53.268;8.308;2022-11-12T08:28:06;16.00;70.10
37658;DHT22;23500;53.268;8.308;2022-11-12T08:30:32;16.00;70.50
37658;DHT22;23500;53.268;8.308;2022-11-12T08:32:59;16.00;70.70
37658;DHT22;23500;53.268;8.308;2022-11-12T08:35:26;16.00;71.10
37658;DHT22;23500;53.268;8.308;2022-11-12T08:38:04;16.00;71.50
37658;DHT22;23500;53.268;8.308;2022-11-12T08:40:31;15.90;71.90
37658;DHT22;23500;53.268;8.308;2022-11-12T08:43:02;16.00;71.40
37658;DHT22;23500;53.268;8.308;2022-11-12T08:45:31;15.90;71.80
37658;DHT22;23500;53.268;8.308;2022-11-12T08:48:05;15.90;71.60
37658;DHT22;23500;53.268;8.308;2022-11-12T08:50:32;15.90;72.00
37658;DHT22;23500;53.268;8.308;2022-11-12T08:53:02;15.90;72.10
37658;DHT22;23500;53.268;8.308;2022-11-12T08:55:29;15.80;72.80
37658;DHT22;23500;53.268;8.308;2022-11-12T08:57:55;15.80;72.80
37658;DHT22;23500;53.268;8.308;2022-11-12T09:00:27;15.80;72.70
37658;DHT22;23500;53.268;8.308;2022-11-12T09:02:53;15.80;72.30
37658;DHT22;23500;53.268;8.308;2022-11-12T09:05:19;15.80;72.30
37658;DHT22;23500;53.268;8.308;2022-11-12T09:07:44;15.80;72.50
37658;DHT22;23500;53.268;8.308;2022-11-12T09:10:10;15.80;72.30
37658;DHT22;23500;53.268;8.308;2022-11-12T09:12:35;15.70;72.10
37658;DHT22;23500;53.268;8.308;2022-11-12T09:15:01;15.70;71.90
37658;DHT22;23500;53.268;8.308;2022-11-12T09:17:27;15.70;72.80
37658;DHT22;23500;53.268;8.308;2022-11-12T09:19:55;15.70;73.50
37658;DHT22;23500;53.268;8.308;2022-11-12T09:22:20;15.70;72.60
37658;DHT22;23500;53.268;8.308;2022-11-12T09:24:46;15.70;73.00
37658;DHT22;23500;53.268;8.308;2022-11-12T09:27:12;15.60;73.40
37658;DHT22;23500;53.268;8.308;2022-11-12T09:29:37;15.60;72.40
37658;DHT22;23500;53.268;8.308;2022-11-12T09:32:03;15.70;72.20
37658;DHT22;23500;53.268;8.308;2022-11-12T09:34:29;15.70;71.70
37658;DHT22;23500;53.268;8.308;2022-11-12T09:36:54;15.70;72.70
37658;DHT22;23500;53.268;8.308;2022-11-12T09:39:20;15.70;72.60
37658;DHT22;23500;53.268;8.308;2022-11-12T09:41:45;15.80;72.60
37658;DHT22;23500;53.268;8.308;2022-11-12T09:44:15;15.80;72.90
37658;DHT22;23500;53.268;8.308;2022-11-12T09:47:05;15.80;73.80
37658;DHT22;23500;53.268;8.308;2022-11-12T09:49:47;15.80;73.70
37658;DHT22;23500;53.268;8.308;2022-11-12T09:52:25;15.80;73.50
37658;DHT22;23500;53.268;8.308;2022-11-12T09:55:05;15.80;73.70
37658;DHT22;23500;53.268;8.308;2022-11-12T09:57:31;15.90;74.70
37658;DHT22;23500;53.268;8.308;2022-11-12T09:59:58;15.90;74.80
37658;DHT22;23500;53.268;8.308;2022-11-12T10:03:06;15.90;74.90
37658;DHT22;23500;53.268;8.308;2022-11-12T10:05:40;15.90;75.40
37658;DHT22;23500;53.268;8.308;2022-11-12T10:24:45;15.90;76.70
37658;DHT22;23500;53.268;8.308;2022-11-12T10:27:18;15.90;77.10
37658;DHT22;23500;53.268;8.308;2022-11-12T10:32:19;15.90;77.60
37658;DHT22;23500;53.268;8.308;2022-11-12T10:34:44;15.90;77.60
37658;DHT22;23500;53.268;8.308;2022-11-12T10:37:19;15.90;77.30
37658;DHT22;23500;53.268;8.308;2022-11-12T10:39:45;15.90;77.40
37658;DHT22;23500;53.268;8.308;2022-11-12T10:42:20;15.90;77.10
37658;DHT22;23500;53.268;8.308;2022-11-12T10:44:46;15.90;76.90
37658;DHT22;23500;53.268;8.308;2022-11-12T10:47:29;15.90;76.40
37658;DHT22;23500;53.268;8.308;2022-11-12T10:52:34;15.90;77.20
37658;DHT22;23500;53.268;8.308;2022-11-12T10:55:16;15.90;76.80
37658;DHT22;23500;53.268;8.308;2022-11-12T10:57:42;15.90;77.10
37658;DHT22;23500;53.268;8.308;2022-11-12T11:02:44;15.90;77.30
37658;DHT22;23500;53.268;8.308;2022-11-12T11:08:10;16.00;76.80
37658;DHT22;23500;53.268;8.308;2022-11-12T11:10:36;16.00;76.40
37658;DHT22;23500;53.268;8.308;2022-11-12T11:13:21;16.10;76.70
37658;DHT22;23500;53.268;8.308;2022-11-12T11:15:59;16.10;76.90
37658;DHT22;23500;53.268;8.308;2022-11-12T11:18:25;16.10;77.10
37658;DHT22;23500;53.268;8.308;2022-11-12T11:23:56;16.10;77.10
37658;DHT22;23500;53.268;8.308;2022-11-12T11:37:27;16.20;76.90
37658;DHT22;23500;53.268;8.308;2022-11-12T11:40:15;16.20;77.00
37658;DHT22;23500;53.268;8.308;2022-11-12T11:46:31;16.20;77.60
37658;DHT22;23500;53.268;8.308;2022-11-12T11:56:54;16.20;78.00
37658;DHT22;23500;53.268;8.308;2022-11-12T12:05:05;16.20;78.10
37658;DHT22;23500;53.268;8.308;2022-11-12T12:13:02;16.20;77.80
37658;DHT22;23500;53.268;8.308;2022-11-12T12:21:10;16.20;75.70
37658;DHT22;23500;53.268;8.308;2022-11-12T12:23:57;16.20;75.40
37658;DHT22;23500;53.268;8.308;2022-11-12T12:29:18;16.30;76.90
37658;DHT22;23500;53.268;8.308;2022-11-12T12:31:52;16.30;77.10
37658;DHT22;23500;53.268;8.308;2022-11-12T12:34:24;16.30;76.80
37658;DHT22;23500;53.268;8.308;2022-11-12T12:36:53;16.40;77.00
37658;DHT22;23500;53.268;8.308;2022-11-12T12:39:54;16.40;77.20
37658;DHT22;23500;53.268;8.308;2022-11-12T12:42:43;16.50;76.70
37658;DHT22;23500;53.268;8.308;2022-11-12T12:45:42;16.50;76.30
37658;DHT22;23500;53.268;8.308;2022-11-12T12:48:19;16.50;74.40
37658;DHT22;23500;53.268;8.308;2022-11-12T12:50:46;16.50;74.30
37658;DHT22;23500;53.268;8.308;2022-11-12T12:55:44;16.50;76.10
37658;DHT22;23500;53.268;8.308;2022-11-12T12:58:20;16.50;75.30
37658;DHT22;23500;53.268;8.308;2022-11-12T13:00:51;16.50;76.10
37658;DHT22;23500;53.268;8.308;2022-11-12T13:30:09;16.50;77.20
37658;DHT22;23500;53.268;8.308;2022-11-12T13:48:42;16.50;76.00
37658;DHT22;23500;53.268;8.308;2022-11-12T13:51:12;16.50;75.30
37658;DHT22;23500;53.268;8.308;2022-11-12T13:53:38;16.50;75.60
37658;DHT22;23500;53.268;8.308;2022-11-12T13:56:04;16.50;75.30
37658;DHT22;23500;53.268;8.308;2022-11-12T13:58:34;16.60;75.20
37658;DHT22;23500;53.268;8.308;2022-11-12T14:01:02;16.60;75.50
37658;DHT22;23500;53.268;8.308;2022-11-12T14:03:50;16.60;75.30
37658;DHT22;23500;53.268;8.308;2022-11-12T14:06:35;16.60;75.20
37658;DHT22;23500;53.268;8.308;2022-11-12T14:12:01;16.70;75.10
37658;DHT22;23500;53.268;8.308;2022-11-12T14:17:53;16.70;74.90
37658;DHT22;23500;53.268;8.308;2022-11-12T14:20:35;16.70;74.20
37658;DHT22;23500;53.268;8.308;2022-11-12T14:25:48;16.70;75.50
37658;DHT22;23500;53.268;8.308;2022-11-12T14:28:35;16.70;75.50
37658;DHT22;23500;53.268;8.308;2022-11-12T14:31:02;16.70;75.50
37658;DHT22;23500;53.268;8.308;2022-11-12T14:33:29;16.70;75.70
37658;DHT22;23500;53.268;8.308;2022-11-12T14:38:32;16.70;76.40
37658;DHT22;23500;53.268;8.308;2022-11-12T14:43:40;16.70;76.60
37658;DHT22;23500;53.268;8.308;2022-11-12T14:46:06;16.70;76.50
37658;DHT22;23500;53.268;8.308;2022-11-12T14:49:02;16.70;76.10
37658;DHT22;23500;53.268;8.308;2022-11-12T14:51:31;16.60;76.30
37658;DHT22;23500;53.268;8.308;2022-11-12T14:54:05;16.60;76.50
37658;DHT22;23500;53.268;8.308;2022-11-12T14:56:42;16.60;76.30
37658;DHT22;23500;53.268;8.308;2022-11-12T14:59:15;16.60;76.30
37658;DHT22;23500;53.268;8.308;2022-11-12T15:02:11;16.60;75.60
37658;DHT22;23500;53.268;8.308;2022-11-12T15:04:51;16.60;75.60
37658;DHT22;23500;53.268;8.308;2022-11-12T15:09:55;16.60;73.80
37658;DHT22;23500;53.268;8.308;2022-11-12T15:12:24;16.60;76.10
37658;DHT22;23500;53.268;8.308;2022-11-12T15:14:51;16.60;77.00
37658;DHT22;23500;53.268;8.308;2022-11-12T15:17:30;16.60;76.60
37658;DHT22;23500;53.268;8.308;2022-11-12T15:20:01;16.60;77.00
37658;DHT22;23500;53.268;8.308;2022-11-12T15:22:27;16.60;76.70
37658;DHT22;23500;53.268;8.308;2022-11-12T15:24:53;16.60;76.30
37658;DHT22;23500;53.268;8.308;2022-11-12T15:27:36;16.60;75.90
37658;DHT22;23500;53.268;8.308;2022-11-12T15:30:15;16.60;76.50
37658;DHT22;23500;53.268;8.308;2022-11-12T15:32:41;16.70;76.60
37658;DHT22;23500;53.268;8.308;2022-11-12T15:35:20;16.70;76.70
37658;DHT22;23500;53.268;8.308;2022-11-12T15:37:55;16.70;77.00
37658;DHT22;23500;53.268;8.308;2022-11-12T15:40:27;16.70;76.50
37658;DHT22;23500;53.268;8.308;2022-11-12T15:42:53;16.70;76.40
37658;DHT22;23500;53.268;8.308;2022-11-12T15:45:20;16.70;76.80
37658;DHT22;23500;53.268;8.308;2022-11-12T15:47:47;16.70;76.20
37658;DHT22;23500;53.268;8.308;2022-11-12T15:52:39;16.70;76.60
37658;DHT22;23500;53.268;8.308;2022-11-12T15:55:05;16.70;76.30
37658;DHT22;23500;53.268;8.308;2022-11-12T15:57:35;16.80;76.40
37658;DHT22;23500;53.268;8.308;2022-11-12T16:00:05;16.70;76.50
37658;DHT22;23500;53.268;8.308;2022-11-12T16:02:32;16.80;77.00
37658;DHT22;23500;53.268;8.308;2022-11-12T16:04:57;16.70;76.50
37658;DHT22;23500;53.268;8.308;2022-11-12T16:07:23;16.70;76.30
37658;DHT22;23500;53.268;8.308;2022-11-12T16:09:49;16.70;76.30
37658;DHT22;23500;53.268;8.308;2022-11-12T16:12:16;16.70;76.10
37658;DHT22;23500;53.268;8.308;2022-11-12T16:14:42;16.70;75.60
37658;DHT22;23500;53.268;8.308;2022-11-12T16:17:13;16.70;75.50
37658;DHT22;23500;53.268;8.308;2022-11-12T16:19:39;16.70;75.70
37658;DHT22;23500;53.268;8.308;2022-11-12T16:22:05;16.70;76.00
37658;DHT22;23500;53.268;8.308;2022-11-12T16:24:40;16.70;75.90
37658;DHT22;23500;53.268;8.308;2022-11-12T16:27:09;16.70;75.40
37658;DHT22;23500;53.268;8.308;2022-11-12T16:29:36;16.60;75.50
37658;DHT22;23500;53.268;8.308;2022-11-12T16:32:02;16.60;75.40
37658;DHT22;23500;53.268;8.308;2022-11-12T16:34:28;16.60;75.40
37658;DHT22;23500;53.268;8.308;2022-11-12T16:36:55;16.60;75.90
37658;DHT22;23500;53.268;8.308;2022-11-12T16:39:21;16.60;75.10
37658;DHT22;23500;53.268;8.308;2022-11-12T16:41:46;16.60;75.20
37658;DHT22;23500;53.268;8.308;2022-11-12T16:44:12;16.60;75.40
37658;DHT22;23500;53.268;8.308;2022-11-12T16:46:38;16.60;75.60
37658;DHT22;23500;53.268;8.308;2022-11-12T16:49:12;16.60;75.20
37658;DHT22;23500;53.268;8.308;2022-11-12T16:51:38;16.60;75.00
37658;DHT22;23500;53.268;8.308;2022-11-12T16:54:04;16.60;75.80
37658;DHT22;23500;53.268;8.308;2022-11-12T16:56:32;16.60;74.50
37658;DHT22;23500;53.268;8.308;2022-11-12T16:58:58;16.60;74.90
37658;DHT22;23500;53.268;8.308;2022-11-12T17:01:28;16.60;74.30
37658;DHT22;23500;53.268;8.308;2022-11-12T17:03:55;16.60;73.40
37658;DHT22;23500;53.268;8.308;2022-11-12T17:06:24;16.60;73.60
37658;DHT22;23500;53.268;8.308;2022-11-12T17:08:55;16.60;75.00
37658;DHT22;23500;53.268;8.308;2022-11-12T17:11:21;16.60;74.50
37658;DHT22;23500;53.268;8.308;2022-11-12T17:13:48;16.60;74.00
37658;DHT22;23500;53.268;8.308;2022-11-12T17:16:13;16.60;74.00
37658;DHT22;23500;53.268;8.308;2022-11-12T17:18:39;16.60;73.90
37658;DHT22;23500;53.268;8.308;2022-11-12T17:21:10;16.60;74.00
37658;DHT22;23500;53.268;8.308;2022-11-12T17:23:36;16.60;74.70
37658;DHT22;23500;53.268;8.308;2022-11-12T17:26:04;16.60;74.10
37658;DHT22;23500;53.268;8.308;2022-11-12T17:28:31;16.60;74.00
37658;DHT22;23500;53.268;8.308;2022-11-12T17:33:31;16.60;73.60
37658;DHT22;23500;53.268;8.308;2022-11-12T17:36:02;16.60;73.60
37658;DHT22;23500;53.268;8.308;2022-11-12T17:38:28;16.60;73.80
37658;DHT22;23500;53.268;8.308;2022-11-12T17:40:55;16.60;73.80
37658;DHT22;23500;53.268;8.308;2022-11-12T17:43:21;16.60;73.90
37658;DHT22;23500;53.268;8.308;2022-11-12T17:45:51;16.60;73.70
37658;DHT22;23500;53.268;8.308;2022-11-12T17:48:17;16.60;73.40
37658;DHT22;23500;53.268;8.308;2022-11-12T17:50:43;16.50;73.10
37658;DHT22;23500;53.268;8.308;2022-11-12T17:53:09;16.60;72.90
37658;DHT22;23500;53.268;8.308;2022-11-12T17:55:35;16.50;73.00
37658;DHT22;23500;53.268;8.308;2022-11-12T17:58:00;16.50;73.00
37658;DHT22;23500;53.268;8.308;2022-11-12T18:00:26;16.50;72.60
37658;DHT22;23500;53.268;8.308;2022-11-12T18:02:54;16.50;72.70
37658;DHT22;23500;53.268;8.308;2022-11-12T18:05:20;16.50;72.10
37658;DHT22;23500;53.268;8.308;2022-11-12T18:07:46;16.40;72.40